createdAt,value
2022-10-17T00:00:59.055Z,88.80
2022-10-17T00:03:28.100Z,87.90
2022-10-17T00:05:57.874Z,86.20
2022-10-17T00:08:26.343Z,85.90
2022-10-17T00:10:59.199Z,88.80
2022-10-17T00:13:28.113Z,90.00
2022-10-17T00:15:56.047Z,91.30
2022-10-17T00:18:24.665Z,92.40
2022-10-17T00:20:52.402Z,93.00
2022-10-17T00:23:20.106Z,92.00
2022-10-17T00:25:47.511Z,91.60
2022-10-17T00:28:15.976Z,90.40
2022-10-17T00:30:47.800Z,88.10
2022-10-17T00:33:16.154Z,89.00
2022-10-17T00:35:43.400Z,91.60
2022-10-17T00:38:10.747Z,91.40
2022-10-17T00:40:38.086Z,88.00
2022-10-17T00:43:06.635Z,88.90
2022-10-17T00:45:36.467Z,89.10
2022-10-17T00:48:09.366Z,89.00
2022-10-17T00:50:40.454Z,88.10
2022-10-17T00:53:09.648Z,86.10
2022-10-17T00:55:48.565Z,85.40
2022-10-17T00:58:16.935Z,84.60
2022-10-17T01:00:48.877Z,87.40
2022-10-17T01:03:42.112Z,89.10
2022-10-17T01:06:09.511Z,89.00
2022-10-17T01:08:37.006Z,88.20
2022-10-17T01:11:31.464Z,88.40
2022-10-17T01:14:28.160Z,90.20
2022-10-17T01:17:11.011Z,90.20
2022-10-17T01:20:15.517Z,88.90
2022-10-17T01:22:54.644Z,89.20
2022-10-17T01:25:43.147Z,89.10
2022-10-17T01:28:38.555Z,88.40
2022-10-17T01:31:16.866Z,87.20
2022-10-17T01:33:50.114Z,85.40
2022-10-17T01:36:23.461Z,86.80
2022-10-17T01:39:06.012Z,87.50
2022-10-17T01:41:42.345Z,87.50
2022-10-17T01:44:32.823Z,86.80
2022-10-17T01:47:11.398Z,85.40
2022-10-17T01:49:42.302Z,85.20
2022-10-17T01:52:41.744Z,85.20
2022-10-17T01:55:17.340Z,85.90
2022-10-17T01:57:50.685Z,86.50
2022-10-17T02:00:31.086Z,86.40
2022-10-17T02:03:04.504Z,86.30
2022-10-17T02:05:36.985Z,84.40
2022-10-17T02:08:04.902Z,85.50
2022-10-17T02:10:44.672Z,88.30
2022-10-17T02:13:12.577Z,89.90
2022-10-17T02:15:58.428Z,90.60
2022-10-17T02:19:09.489Z,92.40
2022-10-17T02:21:51.324Z,92.30
2022-10-17T02:24:33.314Z,91.80
2022-10-17T02:27:17.472Z,90.60
2022-10-17T02:29:49.984Z,90.90
2022-10-17T02:32:29.792Z,89.60
2022-10-17T02:35:01.992Z,88.30
2022-10-17T02:37:33.584Z,87.40
2022-10-17T02:40:03.513Z,86.70
2022-10-17T02:42:32.533Z,86.50
2022-10-17T02:45:02.478Z,85.70
2022-10-17T02:47:51.355Z,84.00
2022-10-17T02:53:10.909Z,83.90
2022-10-17T02:55:46.250Z,83.70
2022-10-17T02:58:21.582Z,84.60
2022-10-17T03:00:55.261Z,84.60
2022-10-17T03:03:30.828Z,84.70
2022-10-17T03:06:02.439Z,84.70
2022-10-17T03:08:30.453Z,84.20
2022-10-17T03:10:58.037Z,84.10
2022-10-17T03:13:30.793Z,86.00
2022-10-17T03:16:00.827Z,87.50
2022-10-17T03:18:29.438Z,88.60
2022-10-17T03:21:00.881Z,88.80
2022-10-17T03:23:29.096Z,88.20
2022-10-17T03:25:56.445Z,89.30
2022-10-17T03:28:24.422Z,90.80
2022-10-17T03:30:56.890Z,90.70
2022-10-17T03:33:25.848Z,90.00
2022-10-17T03:35:55.098Z,88.60
2022-10-17T03:38:25.167Z,88.30
2022-10-17T03:40:57.422Z,88.00
2022-10-17T03:43:25.875Z,86.40
2022-10-17T03:45:57.072Z,86.60
2022-10-17T03:48:29.009Z,87.30
2022-10-17T03:51:05.075Z,87.20
2022-10-17T03:53:34.985Z,87.70
2022-10-17T03:56:18.114Z,86.80
2022-10-17T03:58:51.959Z,86.50
2022-10-17T04:01:20.766Z,86.10
2022-10-17T04:03:54.206Z,85.20
2022-10-17T04:06:23.171Z,84.80
2022-10-17T04:08:51.214Z,83.60
2022-10-17T04:11:34.740Z,83.50
2022-10-17T04:14:05.030Z,83.50
2022-10-17T04:16:32.811Z,83.20
2022-10-17T04:19:04.086Z,82.60
2022-10-17T04:21:37.205Z,82.70
2022-10-17T04:24:07.503Z,82.40
2022-10-17T04:26:59.093Z,82.10
2022-10-17T04:29:30.053Z,83.30
2022-10-17T04:32:05.953Z,84.50
2022-10-17T04:34:40.275Z,87.60
2022-10-17T04:37:07.657Z,89.90
2022-10-17T04:39:36.433Z,91.70
2022-10-17T04:42:04.094Z,93.00
2022-10-17T04:44:33.677Z,93.10
2022-10-17T04:47:01.894Z,92.30
2022-10-17T04:49:29.412Z,90.70
2022-10-17T04:52:02.817Z,90.70
2022-10-17T04:54:42.859Z,89.30
2022-10-17T04:57:11.399Z,89.70
2022-10-17T04:59:40.627Z,89.30
2022-10-17T05:02:21.852Z,88.70
2022-10-17T05:04:49.634Z,87.50
2022-10-17T05:07:17.097Z,85.70
2022-10-17T05:09:51.594Z,85.00
2022-10-17T05:12:21.333Z,85.50
2022-10-17T05:14:49.650Z,85.10
2022-10-17T05:17:17.272Z,85.60
2022-10-17T05:19:45.015Z,86.70
2022-10-17T05:22:12.242Z,85.90
2022-10-17T05:24:40.476Z,86.80
2022-10-17T05:27:09.007Z,86.70
2022-10-17T05:29:36.423Z,86.60
2022-10-17T05:32:10.932Z,87.50
2022-10-17T05:34:39.213Z,88.80
2022-10-17T05:37:06.600Z,89.20
2022-10-17T05:39:34.865Z,90.40
2022-10-17T05:42:04.790Z,90.80
2022-10-17T05:44:33.911Z,90.50
2022-10-17T05:47:02.025Z,89.70
2022-10-17T05:49:44.713Z,88.90
2022-10-17T05:52:14.347Z,87.80
2022-10-17T05:54:54.884Z,86.50
2022-10-17T05:57:25.967Z,83.70
2022-10-17T05:59:53.624Z,84.00
2022-10-17T06:02:22.768Z,85.00
2022-10-17T06:04:51.550Z,84.40
2022-10-17T06:07:21.584Z,85.30
2022-10-17T06:09:50.015Z,85.60
2022-10-17T06:12:17.434Z,86.00
2022-10-17T06:14:45.858Z,86.60
2022-10-17T06:17:16.214Z,85.50
2022-10-17T06:19:45.206Z,85.00
2022-10-17T06:22:15.005Z,85.50
2022-10-17T06:24:42.902Z,85.30
2022-10-17T06:27:14.176Z,85.00
2022-10-17T06:29:42.574Z,84.50
2022-10-17T06:32:14.221Z,83.90
2022-10-17T06:34:45.866Z,84.00
2022-10-17T06:37:13.323Z,84.10
2022-10-17T06:39:41.946Z,83.60
2022-10-17T06:42:16.546Z,83.50
2022-10-17T06:45:07.760Z,84.00
2022-10-17T06:47:45.814Z,83.30
2022-10-17T06:50:34.334Z,82.70
2022-10-17T06:53:38.036Z,82.60
2022-10-17T06:56:28.239Z,82.00
2022-10-17T06:59:16.153Z,83.40
2022-10-17T07:01:51.807Z,83.90
2022-10-17T07:04:19.878Z,83.50
2022-10-17T07:06:47.177Z,83.40
2022-10-17T07:09:23.003Z,83.90
2022-10-17T07:11:51.736Z,85.90
2022-10-17T07:14:19.864Z,85.10
2022-10-17T07:16:51.413Z,84.40
2022-10-17T07:19:21.862Z,84.60
2022-10-17T07:21:51.730Z,84.90
2022-10-17T07:24:19.786Z,84.30
2022-10-17T07:26:52.802Z,83.30
2022-10-17T07:29:21.587Z,83.90
2022-10-17T07:32:10.858Z,84.30
2022-10-17T07:34:38.162Z,83.50
2022-10-17T07:37:07.599Z,81.90
2022-10-17T07:39:36.509Z,80.90
2022-10-17T07:42:05.035Z,80.70
2022-10-17T07:44:32.315Z,80.60
2022-10-17T07:47:00.488Z,80.30
2022-10-17T07:49:27.933Z,80.10
2022-10-17T07:51:55.334Z,79.70
2022-10-17T07:54:23.944Z,80.10
2022-10-17T07:56:51.921Z,78.90
2022-10-17T07:59:19.956Z,78.50
2022-10-17T08:01:47.443Z,77.60
2022-10-17T08:04:16.898Z,78.00
2022-10-17T08:06:44.297Z,78.60
2022-10-17T08:09:11.787Z,78.80
2022-10-17T08:11:39.185Z,77.20
2022-10-17T08:14:06.902Z,77.60
2022-10-17T08:16:34.270Z,76.70
2022-10-17T08:19:02.156Z,76.60
2022-10-17T08:21:29.693Z,76.20
2022-10-17T08:23:57.458Z,74.90
2022-10-17T08:26:24.691Z,76.20
2022-10-17T08:28:52.810Z,73.70
2022-10-17T08:31:21.822Z,73.90
2022-10-17T08:33:51.745Z,72.30
2022-10-17T08:36:21.790Z,70.50
2022-10-17T08:38:52.812Z,70.00
2022-10-17T08:41:55.747Z,71.30
2022-10-17T08:44:36.824Z,72.00
2022-10-17T08:47:09.933Z,72.70
2022-10-17T08:49:52.837Z,72.50
2022-10-17T08:52:46.542Z,72.60
2022-10-17T08:55:34.977Z,72.60
2022-10-17T08:58:02.496Z,72.00
2022-10-17T09:00:35.760Z,70.90
2022-10-17T09:03:40.511Z,69.80
2022-10-17T09:06:30.146Z,69.90
2022-10-17T09:09:27.148Z,68.50
2022-10-17T09:12:12.949Z,69.10
2022-10-17T09:15:04.734Z,66.20
2022-10-17T09:17:50.132Z,67.20
2022-10-17T09:20:31.107Z,66.70
2022-10-17T09:23:04.037Z,67.10
2022-10-17T09:25:41.724Z,67.40
2022-10-17T09:28:21.976Z,65.00
2022-10-17T09:31:01.266Z,65.60
2022-10-17T09:33:53.975Z,66.60
2022-10-17T09:36:22.940Z,65.90
2022-10-17T09:38:56.697Z,65.40
2022-10-17T09:41:44.734Z,63.90
2022-10-17T09:44:22.376Z,63.70
2022-10-17T09:47:05.338Z,63.30
2022-10-17T09:49:38.233Z,64.20
2022-10-17T09:52:28.249Z,64.00
2022-10-17T09:55:18.821Z,64.10
2022-10-17T09:58:04.730Z,63.30
2022-10-17T10:00:41.532Z,62.60
2022-10-17T10:03:24.883Z,61.00
2022-10-17T10:06:05.863Z,61.60
2022-10-17T10:08:50.199Z,59.60
2022-10-17T10:11:20.197Z,59.60
2022-10-17T10:13:50.041Z,60.90
2022-10-17T10:16:24.572Z,59.70
2022-10-17T10:18:53.252Z,60.00
2022-10-17T10:21:23.457Z,58.80
2022-10-17T10:24:00.159Z,59.70
2022-10-17T10:26:32.267Z,57.60
2022-10-17T10:29:08.175Z,58.60
2022-10-17T10:31:38.833Z,56.80
2022-10-17T10:34:22.785Z,57.70
2022-10-17T10:37:01.673Z,57.10
2022-10-17T10:39:47.713Z,54.10
2022-10-17T10:42:42.273Z,55.30
2022-10-17T10:45:29.365Z,54.30
2022-10-17T10:48:22.045Z,56.70
2022-10-17T10:51:04.666Z,55.40
2022-10-17T10:53:53.680Z,54.70
2022-10-17T10:56:49.890Z,53.30
2022-10-17T10:59:23.343Z,52.70
2022-10-17T11:01:57.320Z,52.90
2022-10-17T11:04:30.550Z,51.40
2022-10-17T11:07:10.818Z,51.40
2022-10-17T11:09:56.764Z,51.30
2022-10-17T11:12:38.384Z,53.50
2022-10-17T11:15:32.681Z,52.10
2022-10-17T11:18:07.172Z,51.70
2022-10-17T11:20:43.713Z,49.60
2022-10-17T11:23:24.528Z,48.90
2022-10-17T11:25:54.997Z,48.60
2022-10-17T11:28:25.144Z,49.50
2022-10-17T11:31:07.988Z,50.20
2022-10-17T11:33:54.973Z,49.60
2022-10-17T11:36:29.087Z,48.60
2022-10-17T11:39:09.099Z,49.40
2022-10-17T11:42:06.937Z,49.10
2022-10-17T11:44:39.569Z,47.40
2022-10-17T11:47:29.131Z,49.60
2022-10-17T11:53:28.011Z,47.30
2022-10-17T11:55:59.159Z,47.00
2022-10-17T11:58:56.539Z,47.50
2022-10-17T12:01:46.660Z,47.50
2022-10-17T12:04:25.012Z,47.90
2022-10-17T12:07:05.435Z,46.20
2022-10-17T12:09:53.156Z,45.90
2022-10-17T12:12:30.350Z,46.50
2022-10-17T12:15:27.956Z,46.60
2022-10-17T12:18:03.206Z,43.70
2022-10-17T12:20:38.916Z,44.70
2022-10-17T12:23:14.702Z,44.70
2022-10-17T12:26:09.665Z,43.50
2022-10-17T12:28:45.469Z,43.60
2022-10-17T12:31:22.884Z,45.20
2022-10-17T12:34:13.751Z,44.10
2022-10-17T12:36:42.364Z,45.20
2022-10-17T12:39:18.214Z,45.20
2022-10-17T12:41:46.853Z,45.80
2022-10-17T12:44:14.513Z,43.70
2022-10-17T12:46:52.475Z,46.40
2022-10-17T12:49:39.456Z,43.80
2022-10-17T12:52:23.508Z,43.00
2022-10-17T12:55:10.902Z,44.50
2022-10-17T12:57:51.209Z,47.10
2022-10-17T13:00:27.080Z,44.00
2022-10-17T13:03:03.844Z,43.20
2022-10-17T13:05:37.379Z,43.00
2022-10-17T13:08:08.317Z,42.60
2022-10-17T13:10:41.906Z,42.20
2022-10-17T13:13:19.337Z,43.90
2022-10-17T13:15:58.457Z,43.60
2022-10-17T13:18:29.947Z,43.30
2022-10-17T13:21:02.117Z,43.90
2022-10-17T13:23:41.781Z,44.30
2022-10-17T13:26:14.781Z,45.10
2022-10-17T13:28:43.946Z,44.70
2022-10-17T13:31:32.341Z,45.00
2022-10-17T13:34:03.084Z,44.10
2022-10-17T13:36:32.776Z,44.40
2022-10-17T13:39:12.377Z,43.70
2022-10-17T13:41:42.518Z,44.00
2022-10-17T13:44:21.753Z,43.50
2022-10-17T13:46:49.753Z,44.90
2022-10-17T13:49:40.793Z,43.70
2022-10-17T13:52:18.328Z,43.60
2022-10-17T13:54:48.647Z,44.20
2022-10-17T13:57:26.967Z,42.90
2022-10-17T13:59:58.608Z,42.50
2022-10-17T14:02:34.529Z,43.10
2022-10-17T14:05:18.367Z,44.00
2022-10-17T14:08:19.136Z,43.10
2022-10-17T14:10:47.400Z,42.80
2022-10-17T14:13:28.113Z,44.20
2022-10-17T14:16:00.653Z,43.80
2022-10-17T14:18:35.989Z,42.60
2022-10-17T14:21:34.345Z,42.70
2022-10-17T14:24:13.035Z,42.30
2022-10-17T14:26:54.296Z,42.50
2022-10-17T14:29:31.201Z,42.30
2022-10-17T14:32:18.050Z,42.80
2022-10-17T14:34:46.773Z,42.80
2022-10-17T14:37:40.789Z,43.50
2022-10-17T14:40:15.887Z,42.20
2022-10-17T14:42:43.824Z,43.00
2022-10-17T14:45:28.079Z,42.00
2022-10-17T14:48:12.658Z,45.20
2022-10-17T14:50:40.425Z,45.80
2022-10-17T14:53:21.321Z,46.70
2022-10-17T14:56:01.598Z,47.40
2022-10-17T14:58:34.475Z,48.30
2022-10-17T15:01:08.401Z,46.60
2022-10-17T15:03:38.393Z,45.70
2022-10-17T15:06:24.614Z,44.30
2022-10-17T15:08:52.045Z,43.40
2022-10-17T15:11:19.384Z,42.90
2022-10-17T15:13:46.792Z,43.30
2022-10-17T15:16:21.767Z,44.30
2022-10-17T15:18:49.726Z,43.70
2022-10-17T15:21:26.644Z,43.90
2022-10-17T15:24:05.970Z,46.00
2022-10-17T15:26:34.544Z,50.70
2022-10-17T15:29:02.372Z,52.30
2022-10-17T15:31:33.889Z,53.90
2022-10-17T15:34:02.074Z,55.30
2022-10-17T15:36:37.648Z,56.90
2022-10-17T15:39:05.569Z,56.20
2022-10-17T15:41:33.583Z,56.50
2022-10-17T15:44:01.787Z,57.70
2022-10-17T15:46:33.476Z,57.60
2022-10-17T15:49:07.750Z,57.20
2022-10-17T15:51:35.218Z,58.60
2022-10-17T15:54:02.625Z,58.90
2022-10-17T15:56:37.533Z,59.60
2022-10-17T15:59:14.101Z,60.40
2022-10-17T16:01:42.827Z,60.70
2022-10-17T16:04:13.332Z,61.00
2022-10-17T16:06:41.062Z,62.60
2022-10-17T16:09:08.785Z,63.60
2022-10-17T16:11:37.951Z,63.00
2022-10-17T16:14:14.963Z,62.70
2022-10-17T16:16:42.984Z,62.40
2022-10-17T16:19:11.604Z,63.00
2022-10-17T16:21:43.813Z,63.00
2022-10-17T16:24:12.426Z,63.30
2022-10-17T16:26:40.800Z,64.80
2022-10-17T16:29:10.294Z,66.60
2022-10-17T16:31:42.184Z,67.10
2022-10-17T16:34:13.341Z,67.50
2022-10-17T16:36:41.337Z,67.90
2022-10-17T16:39:09.039Z,66.90
2022-10-17T16:41:38.573Z,67.30
2022-10-17T16:44:08.464Z,68.10
2022-10-17T16:46:37.792Z,68.00
2022-10-17T16:49:06.371Z,67.80
2022-10-17T16:51:36.068Z,66.90
2022-10-17T16:54:04.865Z,67.80
2022-10-17T16:56:33.149Z,68.50
2022-10-17T16:59:02.025Z,68.60
2022-10-17T17:01:31.779Z,68.70
2022-10-17T17:04:10.885Z,68.90
2022-10-17T17:06:41.631Z,69.30
2022-10-17T17:09:09.999Z,69.50
2022-10-17T17:11:38.148Z,69.70
2022-10-17T17:14:07.852Z,70.00
2022-10-17T17:16:35.565Z,70.10
2022-10-17T17:19:07.981Z,70.80
2022-10-17T17:21:35.794Z,71.40
2022-10-17T17:24:04.656Z,70.90
2022-10-17T17:26:36.368Z,75.10
2022-10-17T17:29:04.605Z,75.20
2022-10-17T17:31:34.406Z,74.40
2022-10-17T17:34:02.743Z,74.70
2022-10-17T17:36:33.632Z,74.40
2022-10-17T17:39:04.435Z,74.40
2022-10-17T17:41:33.342Z,73.90
2022-10-17T17:44:02.537Z,73.50
2022-10-17T17:46:30.855Z,73.20
2022-10-17T17:48:59.513Z,73.10
2022-10-17T17:51:29.641Z,72.90
2022-10-17T17:53:59.368Z,74.50
2022-10-17T17:56:30.509Z,74.50
2022-10-17T17:59:01.398Z,74.70
2022-10-17T18:01:38.721Z,74.60
2022-10-17T18:04:08.990Z,73.70
2022-10-17T18:06:37.979Z,75.20
2022-10-17T18:09:06.356Z,76.40
2022-10-17T18:11:34.050Z,78.70
2022-10-17T18:14:08.605Z,79.00
2022-10-17T18:16:37.472Z,79.90
2022-10-17T18:19:07.224Z,81.10
2022-10-17T18:21:35.802Z,81.50
2022-10-17T18:24:05.149Z,80.50
2022-10-17T18:26:33.067Z,79.30
2022-10-17T18:29:01.141Z,78.10
2022-10-17T18:31:32.282Z,77.30
2022-10-17T18:34:01.823Z,76.50
2022-10-17T18:36:34.175Z,75.80
2022-10-17T18:39:03.432Z,75.10
2022-10-17T18:41:32.089Z,76.80
2022-10-17T18:44:00.516Z,76.50
2022-10-17T18:46:31.308Z,78.30
2022-10-17T18:48:59.678Z,80.10
2022-10-17T18:51:28.056Z,80.50
2022-10-17T18:53:59.545Z,80.10
2022-10-17T18:56:28.183Z,79.30
2022-10-17T18:58:56.549Z,78.10
2022-10-17T19:01:26.730Z,77.40
2022-10-17T19:03:57.909Z,76.40
2022-10-17T19:06:27.870Z,77.70
2022-10-17T19:08:55.101Z,79.30
2022-10-17T19:11:25.179Z,79.70
2022-10-17T19:13:53.423Z,80.10
2022-10-17T19:16:24.224Z,81.50
2022-10-17T19:18:53.842Z,82.80
2022-10-17T19:21:22.406Z,82.90
2022-10-17T19:24:00.847Z,81.60
2022-10-17T19:26:30.908Z,80.70
2022-10-17T19:29:00.995Z,79.60
2022-10-17T19:31:31.715Z,78.10
2022-10-17T19:34:00.668Z,79.70
2022-10-17T19:36:33.604Z,81.00
2022-10-17T19:39:07.360Z,82.50
2022-10-17T19:41:36.531Z,84.50
2022-10-17T19:44:04.178Z,84.00
2022-10-17T19:46:34.213Z,83.90
2022-10-17T19:49:02.788Z,85.10
2022-10-17T19:51:30.983Z,84.60
2022-10-17T19:54:00.951Z,83.50
2022-10-17T19:56:33.306Z,82.20
2022-10-17T19:59:01.216Z,80.90
2022-10-17T20:01:31.754Z,79.80
2022-10-17T20:04:00.800Z,78.60
2022-10-17T20:06:29.735Z,78.50
2022-10-17T20:08:57.973Z,78.30
2022-10-17T20:11:28.002Z,78.10
2022-10-17T20:13:56.703Z,78.10
2022-10-17T20:16:29.786Z,77.80
2022-10-17T20:19:02.896Z,79.90
2022-10-17T20:21:33.305Z,80.40
2022-10-17T20:24:02.398Z,82.70
2022-10-17T20:26:39.812Z,83.80
2022-10-17T20:29:14.787Z,83.90
2022-10-17T20:31:44.005Z,83.10
2022-10-17T20:34:14.233Z,81.80
2022-10-17T20:36:42.539Z,80.40
2022-10-17T20:39:11.847Z,82.40
2022-10-17T20:41:39.765Z,82.00
2022-10-17T20:44:07.712Z,81.50
2022-10-17T20:46:37.217Z,81.70
2022-10-17T20:49:07.085Z,81.10
2022-10-17T20:51:35.711Z,80.10
2022-10-17T20:54:03.576Z,80.10
2022-10-17T20:56:34.233Z,82.60
2022-10-17T20:59:02.851Z,84.00
2022-10-17T21:01:32.117Z,84.00
2022-10-17T21:04:15.927Z,83.50
2022-10-17T21:06:48.336Z,81.50
2022-10-17T21:09:15.747Z,84.40
2022-10-17T21:11:43.513Z,85.20
2022-10-17T21:14:12.200Z,84.90
2022-10-17T21:16:41.461Z,84.10
2022-10-17T21:19:11.223Z,83.40
2022-10-17T21:21:41.327Z,82.10
2022-10-17T21:24:14.359Z,82.60
2022-10-17T21:26:43.794Z,83.70
2022-10-17T21:29:12.919Z,84.90
2022-10-17T21:31:42.482Z,85.80
2022-10-17T21:34:13.133Z,85.60
2022-10-17T21:36:41.097Z,87.90
2022-10-17T21:41:41.546Z,88.10
2022-10-17T21:44:17.545Z,87.70
2022-10-17T21:46:45.956Z,87.70
2022-10-17T21:49:15.291Z,87.50
2022-10-17T21:51:44.302Z,86.00
2022-10-17T21:54:11.994Z,84.50
2022-10-17T21:56:39.670Z,83.50
2022-10-17T21:59:07.445Z,83.10
2022-10-17T22:01:40.846Z,81.90
2022-10-17T22:04:13.815Z,81.40
2022-10-17T22:06:42.840Z,81.20
2022-10-17T22:09:17.022Z,84.50
2022-10-17T22:11:49.373Z,85.70
2022-10-17T22:14:19.118Z,84.90
2022-10-17T22:16:47.545Z,83.80
2022-10-17T22:19:18.409Z,83.40
2022-10-17T22:21:45.875Z,83.30
2022-10-17T22:24:15.104Z,83.60
2022-10-17T22:26:43.210Z,86.10
2022-10-17T22:29:10.963Z,86.50
2022-10-17T22:31:39.074Z,88.00
2022-10-17T22:34:07.841Z,87.90
2022-10-17T22:36:35.955Z,86.60
2022-10-17T22:39:04.475Z,84.80
2022-10-17T22:41:32.656Z,82.90
2022-10-17T22:44:00.258Z,82.70
2022-10-17T22:46:28.573Z,84.80
2022-10-17T22:48:56.260Z,87.30
2022-10-17T22:53:57.044Z,87.50
2022-10-17T22:56:24.282Z,86.20
2022-10-17T22:58:52.100Z,85.10
2022-10-17T23:01:24.897Z,83.80
2022-10-17T23:03:53.117Z,85.10
2022-10-17T23:06:21.157Z,86.10
2022-10-17T23:08:48.822Z,84.60
2022-10-17T23:11:16.673Z,84.20
2022-10-17T23:13:44.253Z,86.50
2022-10-17T23:16:11.767Z,87.90
2022-10-17T23:18:39.871Z,88.70
2022-10-17T23:21:07.949Z,88.20
2022-10-17T23:23:35.837Z,88.90
2022-10-17T23:26:08.618Z,89.10
2022-10-17T23:28:36.249Z,88.10
2022-10-17T23:31:17.891Z,86.30
2022-10-17T23:33:47.609Z,85.00
2022-10-17T23:36:21.388Z,83.50
2022-10-17T23:38:50.200Z,84.60
2022-10-17T23:41:19.239Z,86.30
2022-10-17T23:43:46.647Z,88.00
2022-10-17T23:46:14.616Z,89.40
2022-10-17T23:48:42.047Z,90.00
2022-10-17T23:51:10.784Z,89.60
2022-10-17T23:53:39.236Z,88.50
2022-10-17T23:56:07.987Z,86.80
2022-10-17T23:58:35.899Z,85.80
